createdAt,value
2023-11-10T00:02:11.070Z,14.10
2023-11-10T00:07:14.051Z,15.30
2023-11-10T00:12:19.220Z,16.97
2023-11-10T00:17:23.603Z,16.40
2023-11-10T00:22:26.540Z,15.90
2023-11-10T00:27:29.648Z,16.77
2023-11-10T00:32:37.518Z,16.20
2023-11-10T00:37:40.715Z,15.40
2023-11-10T00:42:43.664Z,14.83
2023-11-10T00:47:47.949Z,16.40
2023-11-10T00:52:51.090Z,18.07
2023-11-10T00:57:54.295Z,19.47
2023-11-10T01:02:58.694Z,18.00
2023-11-10T01:08:01.648Z,15.27
2023-11-10T01:13:04.940Z,19.30
2023-11-10T01:18:09.812Z,15.30
2023-11-10T01:23:12.785Z,16.13
2023-11-10T01:28:15.716Z,16.60
2023-11-10T01:33:20.272Z,14.80
2023-11-10T01:38:23.675Z,16.83
2023-11-10T01:43:26.590Z,19.47
2023-11-10T01:48:32.177Z,15.10
2023-11-10T01:53:35.215Z,16.20
2023-11-10T01:58:38.178Z,16.70
2023-11-10T02:03:42.955Z,13.97
2023-11-10T02:08:46.315Z,18.63
2023-11-10T02:13:49.773Z,21.13
2023-11-10T02:18:54.030Z,14.43
2023-11-10T02:23:58.329Z,17.50
2023-11-10T02:29:02.612Z,17.07
2023-11-10T02:34:05.631Z,15.57
2023-11-10T02:39:10.449Z,15.43
2023-11-10T02:44:15.857Z,15.70
2023-11-10T02:49:19.251Z,15.73
2023-11-10T02:54:22.213Z,17.43
2023-11-10T02:59:26.469Z,14.90
2023-11-10T03:04:29.461Z,16.00
2023-11-10T03:09:32.433Z,18.53
2023-11-10T03:14:37.401Z,15.53
2023-11-10T03:19:40.312Z,16.83
2023-11-10T03:24:43.225Z,21.90
2023-11-10T03:29:47.467Z,17.80
2023-11-10T03:34:50.364Z,16.30
2023-11-10T03:39:53.304Z,19.13
2023-11-10T03:44:57.629Z,19.30
2023-11-10T03:50:00.581Z,14.70
2023-11-10T03:55:03.585Z,18.30
2023-11-10T04:00:10.317Z,15.93
2023-11-10T04:05:13.356Z,17.70
2023-11-10T04:10:18.637Z,15.67
2023-11-10T04:15:23.062Z,19.77
2023-11-10T04:20:25.939Z,17.83
2023-11-10T04:25:30.169Z,16.37
2023-11-10T04:30:34.585Z,20.10
2023-11-10T04:35:37.740Z,18.43
2023-11-10T04:40:41.480Z,16.10
2023-11-10T04:45:45.883Z,16.67
2023-11-10T04:50:49.259Z,18.97
2023-11-10T04:55:52.207Z,16.00
2023-11-10T05:00:56.595Z,15.60
2023-11-10T05:06:01.997Z,17.77
2023-11-10T05:11:06.008Z,18.70
2023-11-10T05:16:12.488Z,16.23
2023-11-10T05:21:15.408Z,15.90
2023-11-10T05:26:18.258Z,18.17
2023-11-10T05:31:22.641Z,17.50
2023-11-10T05:36:26.331Z,16.03
2023-11-10T05:41:29.300Z,15.90
2023-11-10T05:46:33.651Z,20.07
2023-11-10T05:51:36.700Z,18.50
2023-11-10T05:56:39.786Z,17.00
2023-11-10T06:01:44.170Z,17.63
2023-11-10T06:06:47.497Z,18.80
2023-11-10T06:11:55.444Z,17.43
2023-11-10T06:17:00.603Z,20.13
2023-11-10T06:22:03.658Z,21.10
2023-11-10T06:27:07.016Z,17.10
2023-11-10T06:32:12.355Z,19.50
2023-11-10T06:37:16.949Z,18.33
2023-11-10T06:42:19.877Z,17.17
2023-11-10T06:47:25.337Z,15.50
2023-11-10T06:52:28.341Z,16.47
2023-11-10T06:57:31.354Z,18.87
2023-11-10T07:02:35.676Z,16.83
2023-11-10T07:07:38.824Z,18.90
2023-11-10T07:12:43.828Z,17.30
2023-11-10T07:17:48.236Z,19.30
2023-11-10T07:22:54.285Z,17.03
2023-11-10T07:28:00.393Z,19.10
2023-11-10T07:33:05.510Z,17.67
2023-11-10T07:38:08.754Z,18.87
2023-11-10T07:43:12.665Z,18.20
2023-11-10T07:48:16.966Z,15.93
2023-11-10T07:53:19.892Z,16.20
2023-11-10T07:58:23.042Z,16.07
2023-11-10T08:03:27.727Z,15.40
2023-11-10T08:08:30.814Z,16.07
2023-11-10T08:13:35.203Z,16.87
2023-11-10T08:18:39.784Z,15.43
2023-11-10T08:23:43.931Z,19.60
2023-11-10T08:28:46.883Z,16.50
2023-11-10T08:33:51.161Z,14.90
2023-11-10T08:38:54.109Z,16.40
2023-11-10T08:43:57.190Z,14.90
2023-11-10T08:49:02.119Z,17.40
2023-11-10T08:54:05.304Z,15.63
2023-11-10T08:59:09.631Z,17.30
2023-11-10T09:04:21.300Z,15.17
2023-11-10T09:09:29.272Z,18.37
2023-11-10T09:14:32.473Z,14.20
2023-11-10T09:19:38.895Z,15.90
2023-11-10T09:24:42.706Z,18.13
2023-11-10T09:29:46.363Z,16.90
2023-11-10T09:34:50.690Z,22.63
2023-11-10T09:39:53.993Z,17.50
2023-11-10T09:44:58.978Z,19.20
2023-11-10T09:50:04.117Z,19.50
2023-11-10T09:55:08.255Z,18.67
2023-11-10T10:00:14.765Z,17.33
2023-11-10T10:05:19.582Z,17.53
2023-11-10T10:10:23.838Z,18.80
2023-11-10T10:15:28.211Z,18.20
2023-11-10T10:20:35.051Z,19.87
2023-11-10T10:25:40.902Z,19.77
2023-11-10T10:30:46.073Z,17.53
2023-11-10T11:15:04.938Z,18.13
2023-11-10T11:20:11.319Z,17.37
2023-11-10T11:25:14.991Z,19.80
2023-11-10T11:30:21.624Z,17.70
2023-11-10T11:35:49.739Z,22.70
2023-11-10T11:40:52.770Z,25.63
2023-11-10T11:46:00.949Z,24.33
2023-11-10T12:03:50.424Z,20.57
2023-11-10T12:08:53.453Z,18.40
2023-11-10T12:13:57.247Z,27.83
2023-11-10T12:19:02.503Z,25.70
2023-11-10T12:24:07.705Z,19.53
2023-11-10T12:34:48.395Z,29.70
2023-11-10T13:12:30.891Z,18.93
2023-11-10T13:17:33.789Z,17.93
2023-11-10T13:29:00.265Z,20.93
2023-11-10T13:53:04.377Z,20.60
2023-11-10T13:58:08.500Z,22.00
2023-11-10T14:03:11.648Z,19.10
2023-11-10T14:08:16.552Z,18.50
2023-11-10T14:13:21.451Z,15.07
2023-11-10T14:18:25.132Z,17.90
2023-11-10T14:23:37.996Z,21.93
2023-11-10T14:28:41.167Z,14.47
2023-11-10T14:33:45.118Z,17.23
2023-11-10T14:38:55.917Z,14.80
2023-11-10T14:44:00.413Z,15.50
2023-11-10T14:49:03.536Z,15.90
2023-11-10T14:54:07.975Z,14.40
2023-11-10T14:59:12.190Z,15.47
2023-11-10T15:04:16.750Z,16.13
2023-11-10T15:09:21.621Z,17.37
2023-11-10T15:14:24.502Z,16.63
2023-11-10T15:19:27.449Z,20.83
2023-11-10T15:24:32.362Z,15.67
2023-11-10T15:29:35.333Z,15.20
2023-11-10T15:34:38.193Z,15.10
2023-11-10T15:39:42.389Z,18.13
2023-11-10T15:44:46.824Z,16.60
2023-11-10T15:49:50.045Z,17.17
2023-11-10T15:54:55.181Z,16.40
2023-11-10T15:59:58.174Z,14.80
2023-11-10T16:05:01.250Z,16.43
2023-11-10T16:10:06.094Z,19.93
2023-11-10T16:15:10.590Z,16.17
2023-11-10T16:20:13.626Z,21.40
2023-11-10T16:25:18.015Z,18.60
2023-11-10T16:30:20.994Z,17.60
2023-11-10T16:35:24.034Z,22.30
2023-11-10T16:40:28.281Z,22.47
2023-11-10T16:45:31.397Z,23.10
2023-11-10T16:50:34.293Z,17.97
2023-11-10T17:33:47.181Z,26.40
2023-11-10T17:38:53.266Z,18.43
2023-11-10T17:43:57.917Z,20.57
2023-11-10T17:49:02.165Z,24.07
2023-11-10T17:54:05.410Z,19.83
2023-11-10T17:59:08.508Z,19.20
2023-11-10T18:04:13.418Z,24.23
2023-11-10T18:09:16.575Z,23.23
2023-11-10T18:14:21.280Z,22.40
2023-11-10T18:19:25.465Z,22.37
2023-11-10T18:24:29.548Z,19.27
2023-11-10T18:29:34.281Z,24.20
2023-11-10T18:34:38.466Z,18.80
2023-11-10T18:39:41.386Z,21.87
2023-11-10T18:44:45.303Z,18.80
2023-11-10T18:49:49.523Z,20.77
2023-11-10T18:54:52.382Z,28.13
2023-11-10T18:59:55.212Z,24.27
2023-11-10T19:04:59.349Z,19.53
2023-11-10T19:10:03.492Z,21.30
2023-11-10T19:15:07.705Z,23.43
2023-11-10T19:20:12.670Z,24.17
2023-11-10T19:25:15.663Z,20.80
2023-11-10T19:30:18.784Z,21.50
2023-11-10T19:35:23.100Z,20.20
2023-11-10T19:40:25.972Z,32.73
2023-11-10T19:45:28.838Z,22.43
2023-11-10T19:50:33.110Z,29.00
2023-11-10T19:55:39.782Z,32.10
2023-11-10T20:05:49.930Z,25.63
2023-11-10T20:10:52.959Z,26.37
2023-11-10T20:15:56.118Z,33.93
2023-11-10T20:21:02.317Z,25.73
2023-11-10T20:26:05.254Z,22.50
2023-11-10T20:31:08.095Z,29.07
2023-11-10T20:36:12.302Z,23.77
2023-11-10T20:41:15.159Z,24.07
2023-11-10T20:46:20.599Z,24.50
2023-11-10T20:51:25.530Z,24.83
2023-11-10T20:56:29.415Z,21.73
2023-11-10T21:01:32.283Z,24.00
2023-11-10T21:06:36.597Z,27.43
2023-11-10T21:11:39.567Z,29.63
2023-11-10T21:16:42.422Z,25.10
2023-11-10T21:21:48.889Z,19.83
2023-11-10T21:26:51.793Z,25.67
2023-11-10T21:31:54.603Z,24.33
2023-11-10T21:36:58.865Z,25.10
2023-11-10T21:42:03.235Z,22.10
2023-11-10T21:47:07.553Z,21.77
2023-11-10T21:52:11.798Z,22.90
2023-11-10T21:57:14.865Z,23.57
2023-11-10T22:02:17.801Z,18.30
2023-11-10T22:07:22.001Z,18.73
2023-11-10T22:12:25.170Z,17.50
2023-11-10T22:17:28.026Z,19.53
2023-11-10T22:22:32.303Z,19.10
2023-11-10T22:27:35.850Z,16.23
2023-11-10T22:32:39.543Z,17.00
2023-11-10T22:37:44.258Z,22.23
2023-11-10T22:42:47.793Z,16.40
2023-11-10T22:47:51.899Z,16.13
2023-11-10T22:52:56.072Z,17.23
2023-11-10T22:57:58.934Z,16.23
2023-11-10T23:03:02.313Z,14.20
2023-11-10T23:08:07.119Z,15.30
2023-11-10T23:13:11.182Z,16.07
2023-11-10T23:18:14.106Z,13.27
2023-11-10T23:23:18.384Z,14.00
2023-11-10T23:28:22.188Z,14.43
2023-11-10T23:33:25.182Z,14.13
2023-11-10T23:38:29.818Z,14.97
2023-11-10T23:43:32.737Z,13.40
2023-11-10T23:48:35.794Z,14.77
2023-11-10T23:53:40.066Z,14.10
2023-11-10T23:58:42.911Z,14.90
